sensor_id;sensor_type;location;lat;lon;timestamp;temperature;humidity
72604;DHT22;60645;56.968;24.196;2023-05-07T00:00:30;3.20;57.10
72604;DHT22;60645;56.968;24.196;2023-05-07T00:02:57;3.10;57.60
72604;DHT22;60645;56.968;24.196;2023-05-07T00:05:24;2.90;58.40
72604;DHT22;60645;56.968;24.196;2023-05-07T00:07:51;2.90;58.20
72604;DHT22;60645;56.968;24.196;2023-05-07T00:10:19;2.90;57.90
72604;DHT22;60645;56.968;24.196;2023-05-07T00:12:46;2.90;57.60
72604;DHT22;60645;56.968;24.196;2023-05-07T00:15:12;3.00;57.40
72604;DHT22;60645;56.968;24.196;2023-05-07T00:17:39;2.90;58.60
72604;DHT22;60645;56.968;24.196;2023-05-07T00:20:06;2.90;57.60
72604;DHT22;60645;56.968;24.196;2023-05-07T00:22:33;2.80;58.50
72604;DHT22;60645;56.968;24.196;2023-05-07T00:25:00;2.70;58.50
72604;DHT22;60645;56.968;24.196;2023-05-07T00:27:27;2.80;58.50
72604;DHT22;60645;56.968;24.196;2023-05-07T00:29:54;2.90;58.70
72604;DHT22;60645;56.968;24.196;2023-05-07T00:32:20;2.80;59.20
72604;DHT22;60645;56.968;24.196;2023-05-07T00:34:47;2.60;59.20
72604;DHT22;60645;56.968;24.196;2023-05-07T00:37:14;2.60;59.30
72604;DHT22;60645;56.968;24.196;2023-05-07T00:39:41;2.70;60.10
72604;DHT22;60645;56.968;24.196;2023-05-07T00:42:08;2.60;59.70
72604;DHT22;60645;56.968;24.196;2023-05-07T00:44:35;2.70;59.90
72604;DHT22;60645;56.968;24.196;2023-05-07T00:47:02;2.50;59.60
72604;DHT22;60645;56.968;24.196;2023-05-07T00:49:37;2.60;60.60
72604;DHT22;60645;56.968;24.196;2023-05-07T00:52:08;2.40;60.20
72604;DHT22;60645;56.968;24.196;2023-05-07T00:54:35;2.60;60.70
72604;DHT22;60645;56.968;24.196;2023-05-07T00:57:03;2.50;60.30
72604;DHT22;60645;56.968;24.196;2023-05-07T00:59:31;2.70;60.30
72604;DHT22;60645;56.968;24.196;2023-05-07T01:01:58;2.40;60.30
72604;DHT22;60645;56.968;24.196;2023-05-07T01:04:25;2.60;60.30
72604;DHT22;60645;56.968;24.196;2023-05-07T01:06:53;2.40;60.60
72604;DHT22;60645;56.968;24.196;2023-05-07T01:09:23;2.40;60.20
72604;DHT22;60645;56.968;24.196;2023-05-07T01:11:50;2.50;59.60
72604;DHT22;60645;56.968;24.196;2023-05-07T01:14:18;2.50;60.00
72604;DHT22;60645;56.968;24.196;2023-05-07T01:16:45;2.60;59.60
72604;DHT22;60645;56.968;24.196;2023-05-07T01:19:12;2.60;59.90
72604;DHT22;60645;56.968;24.196;2023-05-07T01:21:46;2.50;59.80
72604;DHT22;60645;56.968;24.196;2023-05-07T01:24:13;2.60;59.00
72604;DHT22;60645;56.968;24.196;2023-05-07T01:26:40;2.60;59.80
72604;DHT22;60645;56.968;24.196;2023-05-07T01:29:07;2.40;59.90
72604;DHT22;60645;56.968;24.196;2023-05-07T01:31:34;2.40;60.30
72604;DHT22;60645;56.968;24.196;2023-05-07T01:34:01;2.60;59.50
72604;DHT22;60645;56.968;24.196;2023-05-07T01:36:29;2.60;60.00
72604;DHT22;60645;56.968;24.196;2023-05-07T01:38:56;2.50;60.40
72604;DHT22;60645;56.968;24.196;2023-05-07T01:41:24;2.20;60.60
72604;DHT22;60645;56.968;24.196;2023-05-07T01:43:51;2.30;59.90
72604;DHT22;60645;56.968;24.196;2023-05-07T01:46:18;2.30;60.30
72604;DHT22;60645;56.968;24.196;2023-05-07T01:48:45;2.30;60.70
72604;DHT22;60645;56.968;24.196;2023-05-07T01:51:12;2.40;60.20
72604;DHT22;60645;56.968;24.196;2023-05-07T01:53:39;2.30;60.80
72604;DHT22;60645;56.968;24.196;2023-05-07T01:56:07;2.30;61.10
72604;DHT22;60645;56.968;24.196;2023-05-07T01:58:34;2.40;61.20
72604;DHT22;60645;56.968;24.196;2023-05-07T02:01:00;2.30;60.30
72604;DHT22;60645;56.968;24.196;2023-05-07T02:03:27;2.10;61.10
72604;DHT22;60645;56.968;24.196;2023-05-07T02:05:54;2.10;61.70
72604;DHT22;60645;56.968;24.196;2023-05-07T02:08:21;2.20;61.50
72604;DHT22;60645;56.968;24.196;2023-05-07T02:10:47;2.00;61.60
72604;DHT22;60645;56.968;24.196;2023-05-07T02:13:14;1.90;61.10
72604;DHT22;60645;56.968;24.196;2023-05-07T02:15:41;2.30;60.60
72604;DHT22;60645;56.968;24.196;2023-05-07T02:18:08;2.20;60.30
72604;DHT22;60645;56.968;24.196;2023-05-07T02:20:35;2.30;60.80
72604;DHT22;60645;56.968;24.196;2023-05-07T02:23:02;2.30;60.90
72604;DHT22;60645;56.968;24.196;2023-05-07T02:25:29;2.10;61.00
72604;DHT22;60645;56.968;24.196;2023-05-07T02:27:56;2.20;61.50
72604;DHT22;60645;56.968;24.196;2023-05-07T02:30:24;2.40;60.80
72604;DHT22;60645;56.968;24.196;2023-05-07T02:32:51;2.10;61.60
72604;DHT22;60645;56.968;24.196;2023-05-07T02:35:18;2.20;61.20
72604;DHT22;60645;56.968;24.196;2023-05-07T02:37:45;2.20;61.10
72604;DHT22;60645;56.968;24.196;2023-05-07T02:40:12;2.40;60.40
72604;DHT22;60645;56.968;24.196;2023-05-07T02:42:39;2.20;60.60
72604;DHT22;60645;56.968;24.196;2023-05-07T02:45:06;2.40;59.90
72604;DHT22;60645;56.968;24.196;2023-05-07T02:47:33;2.70;59.60
72604;DHT22;60645;56.968;24.196;2023-05-07T02:49:59;2.80;59.90
72604;DHT22;60645;56.968;24.196;2023-05-07T02:52:26;3.10;60.20
72604;DHT22;60645;56.968;24.196;2023-05-07T02:54:53;3.00;58.00
72604;DHT22;60645;56.968;24.196;2023-05-07T02:57:20;3.30;57.30
72604;DHT22;60645;56.968;24.196;2023-05-07T02:59:47;3.40;56.80
72604;DHT22;60645;56.968;24.196;2023-05-07T03:02:13;3.50;57.20
72604;DHT22;60645;56.968;24.196;2023-05-07T03:04:40;3.70;56.80
72604;DHT22;60645;56.968;24.196;2023-05-07T03:07:07;3.80;56.20
72604;DHT22;60645;56.968;24.196;2023-05-07T03:09:34;3.80;55.80
72604;DHT22;60645;56.968;24.196;2023-05-07T03:12:01;3.70;55.90
72604;DHT22;60645;56.968;24.196;2023-05-07T03:14:28;4.00;56.30
72604;DHT22;60645;56.968;24.196;2023-05-07T03:16:55;4.20;54.40
72604;DHT22;60645;56.968;24.196;2023-05-07T03:19:21;4.30;54.50
72604;DHT22;60645;56.968;24.196;2023-05-07T03:21:48;4.80;54.00
72604;DHT22;60645;56.968;24.196;2023-05-07T03:24:15;5.00;52.50
72604;DHT22;60645;56.968;24.196;2023-05-07T03:26:42;5.40;52.30
72604;DHT22;60645;56.968;24.196;2023-05-07T03:29:08;5.60;51.00
72604;DHT22;60645;56.968;24.196;2023-05-07T03:31:35;5.60;51.70
72604;DHT22;60645;56.968;24.196;2023-05-07T03:34:02;5.40;51.70
72604;DHT22;60645;56.968;24.196;2023-05-07T03:36:29;5.50;51.60
72604;DHT22;60645;56.968;24.196;2023-05-07T03:38:55;5.40;52.10
72604;DHT22;60645;56.968;24.196;2023-05-07T03:41:22;5.70;51.10
72604;DHT22;60645;56.968;24.196;2023-05-07T03:43:49;6.10;49.80
72604;DHT22;60645;56.968;24.196;2023-05-07T03:46:16;6.20;49.20
72604;DHT22;60645;56.968;24.196;2023-05-07T03:48:42;6.40;49.50
72604;DHT22;60645;56.968;24.196;2023-05-07T03:51:09;6.30;49.60
72604;DHT22;60645;56.968;24.196;2023-05-07T03:53:36;6.60;49.60
72604;DHT22;60645;56.968;24.196;2023-05-07T03:56:03;7.10;49.50
72604;DHT22;60645;56.968;24.196;2023-05-07T03:58:30;7.20;48.50
72604;DHT22;60645;56.968;24.196;2023-05-07T04:00:56;7.30;48.00
72604;DHT22;60645;56.968;24.196;2023-05-07T04:03:23;7.40;47.70
72604;DHT22;60645;56.968;24.196;2023-05-07T04:05:50;7.50;47.10
72604;DHT22;60645;56.968;24.196;2023-05-07T04:08:17;7.50;46.50
72604;DHT22;60645;56.968;24.196;2023-05-07T04:10:44;7.90;46.80
72604;DHT22;60645;56.968;24.196;2023-05-07T04:13:11;8.10;46.40
72604;DHT22;60645;56.968;24.196;2023-05-07T04:15:38;8.20;45.70
72604;DHT22;60645;56.968;24.196;2023-05-07T04:18:05;8.70;45.30
72604;DHT22;60645;56.968;24.196;2023-05-07T04:20:33;8.90;45.90
72604;DHT22;60645;56.968;24.196;2023-05-07T04:23:01;9.30;44.50
72604;DHT22;60645;56.968;24.196;2023-05-07T04:25:27;9.80;43.70
72604;DHT22;60645;56.968;24.196;2023-05-07T04:27:55;9.90;43.30
72604;DHT22;60645;56.968;24.196;2023-05-07T04:30:23;9.90;43.50
72604;DHT22;60645;56.968;24.196;2023-05-07T04:32:50;9.90;43.20
72604;DHT22;60645;56.968;24.196;2023-05-07T04:35:17;9.80;43.90
72604;DHT22;60645;56.968;24.196;2023-05-07T04:37:44;10.00;43.20
72604;DHT22;60645;56.968;24.196;2023-05-07T04:40:11;10.10;43.10
72604;DHT22;60645;56.968;24.196;2023-05-07T04:42:38;10.20;43.50
72604;DHT22;60645;56.968;24.196;2023-05-07T04:45:05;10.30;43.10
72604;DHT22;60645;56.968;24.196;2023-05-07T04:47:32;10.50;43.40
72604;DHT22;60645;56.968;24.196;2023-05-07T04:49:59;11.10;42.00
72604;DHT22;60645;56.968;24.196;2023-05-07T04:52:25;11.00;43.10
72604;DHT22;60645;56.968;24.196;2023-05-07T04:54:53;11.10;41.80
72604;DHT22;60645;56.968;24.196;2023-05-07T04:57:19;11.20;41.80
72604;DHT22;60645;56.968;24.196;2023-05-07T04:59:46;11.90;41.50
72604;DHT22;60645;56.968;24.196;2023-05-07T05:02:13;12.50;40.80
72604;DHT22;60645;56.968;24.196;2023-05-07T05:04:40;12.70;39.90
72604;DHT22;60645;56.968;24.196;2023-05-07T05:07:06;13.10;39.50
72604;DHT22;60645;56.968;24.196;2023-05-07T05:09:33;13.10;39.20
72604;DHT22;60645;56.968;24.196;2023-05-07T05:12:00;13.20;39.30
72604;DHT22;60645;56.968;24.196;2023-05-07T05:14:27;13.30;39.50
72604;DHT22;60645;56.968;24.196;2023-05-07T05:16:53;13.40;38.60
72604;DHT22;60645;56.968;24.196;2023-05-07T05:19:20;13.50;38.30
72604;DHT22;60645;56.968;24.196;2023-05-07T05:21:47;14.00;38.30
72604;DHT22;60645;56.968;24.196;2023-05-07T05:24:14;14.30;38.30
72604;DHT22;60645;56.968;24.196;2023-05-07T05:26:41;14.00;38.40
72604;DHT22;60645;56.968;24.196;2023-05-07T05:29:08;14.20;39.00
72604;DHT22;60645;56.968;24.196;2023-05-07T05:31:35;14.20;37.70
72604;DHT22;60645;56.968;24.196;2023-05-07T05:34:02;14.40;38.70
72604;DHT22;60645;56.968;24.196;2023-05-07T05:36:30;14.90;37.60
72604;DHT22;60645;56.968;24.196;2023-05-07T05:38:57;15.20;37.60
72604;DHT22;60645;56.968;24.196;2023-05-07T05:41:23;15.40;36.60
72604;DHT22;60645;56.968;24.196;2023-05-07T05:43:51;15.20;37.50
72604;DHT22;60645;56.968;24.196;2023-05-07T05:46:18;15.30;36.80
72604;DHT22;60645;56.968;24.196;2023-05-07T05:48:44;15.30;37.10
72604;DHT22;60645;56.968;24.196;2023-05-07T05:51:11;15.40;37.00
72604;DHT22;60645;56.968;24.196;2023-05-07T05:53:38;15.90;35.80
72604;DHT22;60645;56.968;24.196;2023-05-07T05:56:05;15.90;35.60
72604;DHT22;60645;56.968;24.196;2023-05-07T05:58:32;16.10;35.80
72604;DHT22;60645;56.968;24.196;2023-05-07T06:00:58;16.00;35.20
72604;DHT22;60645;56.968;24.196;2023-05-07T06:03:26;16.10;36.00
72604;DHT22;60645;56.968;24.196;2023-05-07T06:05:53;16.20;35.20
72604;DHT22;60645;56.968;24.196;2023-05-07T06:08:20;15.50;36.20
72604;DHT22;60645;56.968;24.196;2023-05-07T06:10:46;15.40;36.10
72604;DHT22;60645;56.968;24.196;2023-05-07T06:13:13;15.70;36.10
72604;DHT22;60645;56.968;24.196;2023-05-07T06:15:42;15.60;35.10
72604;DHT22;60645;56.968;24.196;2023-05-07T06:18:09;16.30;35.40
72604;DHT22;60645;56.968;24.196;2023-05-07T06:20:35;17.10;34.40
72604;DHT22;60645;56.968;24.196;2023-05-07T06:23:02;17.00;34.70
72604;DHT22;60645;56.968;24.196;2023-05-07T06:25:29;16.90;34.30
72604;DHT22;60645;56.968;24.196;2023-05-07T06:27:56;17.90;34.50
72604;DHT22;60645;56.968;24.196;2023-05-07T06:30:22;17.70;33.60
72604;DHT22;60645;56.968;24.196;2023-05-07T06:32:49;17.40;33.90
72604;DHT22;60645;56.968;24.196;2023-05-07T06:35:16;17.20;34.00
72604;DHT22;60645;56.968;24.196;2023-05-07T06:37:43;17.00;33.90
72604;DHT22;60645;56.968;24.196;2023-05-07T06:40:10;17.70;34.00
72604;DHT22;60645;56.968;24.196;2023-05-07T06:42:37;17.70;33.40
72604;DHT22;60645;56.968;24.196;2023-05-07T06:45:04;17.90;33.50
72604;DHT22;60645;56.968;24.196;2023-05-07T06:47:31;17.80;33.40
72604;DHT22;60645;56.968;24.196;2023-05-07T06:49:58;18.30;32.60
72604;DHT22;60645;56.968;24.196;2023-05-07T06:52:24;17.40;33.60
72604;DHT22;60645;56.968;24.196;2023-05-07T06:54:51;17.40;33.00
72604;DHT22;60645;56.968;24.196;2023-05-07T06:57:18;17.50;33.00
72604;DHT22;60645;56.968;24.196;2023-05-07T06:59:45;17.90;32.10
72604;DHT22;60645;56.968;24.196;2023-05-07T07:02:11;17.30;33.30
72604;DHT22;60645;56.968;24.196;2023-05-07T07:04:38;17.70;32.40
72604;DHT22;60645;56.968;24.196;2023-05-07T07:07:05;18.10;33.60
72604;DHT22;60645;56.968;24.196;2023-05-07T07:09:32;18.40;31.70
72604;DHT22;60645;56.968;24.196;2023-05-07T07:12:01;18.50;31.80
72604;DHT22;60645;56.968;24.196;2023-05-07T07:14:27;18.50;31.80
72604;DHT22;60645;56.968;24.196;2023-05-07T07:16:54;18.90;30.60
72604;DHT22;60645;56.968;24.196;2023-05-07T07:19:23;19.00;30.90
72604;DHT22;60645;56.968;24.196;2023-05-07T07:21:50;19.00;31.00
72604;DHT22;60645;56.968;24.196;2023-05-07T07:24:16;18.90;31.00
72604;DHT22;60645;56.968;24.196;2023-05-07T07:26:47;19.00;31.40
72604;DHT22;60645;56.968;24.196;2023-05-07T07:29:14;18.50;31.30
72604;DHT22;60645;56.968;24.196;2023-05-07T07:31:41;19.00;31.40
72604;DHT22;60645;56.968;24.196;2023-05-07T07:34:07;19.20;30.30
72604;DHT22;60645;56.968;24.196;2023-05-07T07:36:34;19.30;30.40
72604;DHT22;60645;56.968;24.196;2023-05-07T07:39:11;18.70;31.10
72604;DHT22;60645;56.968;24.196;2023-05-07T07:41:38;18.10;32.10
72604;DHT22;60645;56.968;24.196;2023-05-07T07:44:05;17.20;32.60
72604;DHT22;60645;56.968;24.196;2023-05-07T07:46:34;18.00;32.20
72604;DHT22;60645;56.968;24.196;2023-05-07T07:49:03;19.30;30.50
72604;DHT22;60645;56.968;24.196;2023-05-07T07:51:30;19.40;30.60
72604;DHT22;60645;56.968;24.196;2023-05-07T07:53:57;19.30;30.20
72604;DHT22;60645;56.968;24.196;2023-05-07T07:56:24;18.60;31.20
72604;DHT22;60645;56.968;24.196;2023-05-07T07:58:51;18.80;30.70
72604;DHT22;60645;56.968;24.196;2023-05-07T08:01:18;19.30;30.30
72604;DHT22;60645;56.968;24.196;2023-05-07T08:03:44;19.90;29.80
72604;DHT22;60645;56.968;24.196;2023-05-07T08:06:11;20.30;29.90
72604;DHT22;60645;56.968;24.196;2023-05-07T08:08:40;21.00;28.80
72604;DHT22;60645;56.968;24.196;2023-05-07T08:11:07;21.30;29.00
72604;DHT22;60645;56.968;24.196;2023-05-07T08:13:34;21.20;29.00
72604;DHT22;60645;56.968;24.196;2023-05-07T08:16:02;21.50;28.90
72604;DHT22;60645;56.968;24.196;2023-05-07T08:18:29;21.30;29.20
72604;DHT22;60645;56.968;24.196;2023-05-07T08:20:55;20.40;29.90
72604;DHT22;60645;56.968;24.196;2023-05-07T08:23:22;20.50;29.20
72604;DHT22;60645;56.968;24.196;2023-05-07T08:25:49;19.60;30.20
72604;DHT22;60645;56.968;24.196;2023-05-07T08:28:16;19.80;30.20
72604;DHT22;60645;56.968;24.196;2023-05-07T08:30:43;20.10;29.40
72604;DHT22;60645;56.968;24.196;2023-05-07T08:33:10;20.30;29.40
72604;DHT22;60645;56.968;24.196;2023-05-07T08:35:37;20.20;29.70
72604;DHT22;60645;56.968;24.196;2023-05-07T08:38:03;20.30;28.90
72604;DHT22;60645;56.968;24.196;2023-05-07T08:40:30;20.10;29.20
72604;DHT22;60645;56.968;24.196;2023-05-07T08:42:59;19.70;29.50
72604;DHT22;60645;56.968;24.196;2023-05-07T08:45:27;19.70;29.40
72604;DHT22;60645;56.968;24.196;2023-05-07T08:48:04;19.70;29.40
72604;DHT22;60645;56.968;24.196;2023-05-07T08:50:32;20.40;29.30
72604;DHT22;60645;56.968;24.196;2023-05-07T08:53:04;21.60;28.00
72604;DHT22;60645;56.968;24.196;2023-05-07T08:55:31;21.40;28.10
72604;DHT22;60645;56.968;24.196;2023-05-07T08:57:59;21.50;28.30
72604;DHT22;60645;56.968;24.196;2023-05-07T09:00:26;22.00;28.40
72604;DHT22;60645;56.968;24.196;2023-05-07T09:02:53;21.50;28.80
72604;DHT22;60645;56.968;24.196;2023-05-07T09:05:20;21.40;28.30
72604;DHT22;60645;56.968;24.196;2023-05-07T09:07:47;21.10;28.30
72604;DHT22;60645;56.968;24.196;2023-05-07T09:10:14;20.90;28.90
72604;DHT22;60645;56.968;24.196;2023-05-07T09:12:40;20.30;28.70
72604;DHT22;60645;56.968;24.196;2023-05-07T09:15:07;19.80;29.20
72604;DHT22;60645;56.968;24.196;2023-05-07T09:17:35;19.80;29.40
72604;DHT22;60645;56.968;24.196;2023-05-07T09:20:05;19.80;29.60
72604;DHT22;60645;56.968;24.196;2023-05-07T09:22:36;20.10;29.20
72604;DHT22;60645;56.968;24.196;2023-05-07T09:25:03;21.10;28.20
72604;DHT22;60645;56.968;24.196;2023-05-07T09:27:30;21.50;28.10
72604;DHT22;60645;56.968;24.196;2023-05-07T09:29:57;21.90;28.10
72604;DHT22;60645;56.968;24.196;2023-05-07T09:32:25;23.00;27.60
72604;DHT22;60645;56.968;24.196;2023-05-07T09:34:56;23.90;27.90
72604;DHT22;60645;56.968;24.196;2023-05-07T09:37:22;23.90;27.90
72604;DHT22;60645;56.968;24.196;2023-05-07T09:39:49;24.40;27.10
72604;DHT22;60645;56.968;24.196;2023-05-07T09:42:16;25.00;26.70
72604;DHT22;60645;56.968;24.196;2023-05-07T09:44:49;24.40;26.50
72604;DHT22;60645;56.968;24.196;2023-05-07T09:47:18;23.40;27.00
72604;DHT22;60645;56.968;24.196;2023-05-07T09:49:46;22.80;27.40
72604;DHT22;60645;56.968;24.196;2023-05-07T09:52:14;23.00;27.60
72604;DHT22;60645;56.968;24.196;2023-05-07T09:54:41;23.10;27.60
72604;DHT22;60645;56.968;24.196;2023-05-07T09:57:12;23.10;27.20
72604;DHT22;60645;56.968;24.196;2023-05-07T09:59:40;22.40;27.70
72604;DHT22;60645;56.968;24.196;2023-05-07T10:02:09;22.30;27.60
72604;DHT22;60645;56.968;24.196;2023-05-07T10:04:36;22.80;27.60
72604;DHT22;60645;56.968;24.196;2023-05-07T10:07:03;23.60;27.60
72604;DHT22;60645;56.968;24.196;2023-05-07T10:09:31;24.00;27.80
72604;DHT22;60645;56.968;24.196;2023-05-07T10:11:58;24.70;27.30
72604;DHT22;60645;56.968;24.196;2023-05-07T10:14:28;25.00;27.20
72604;DHT22;60645;56.968;24.196;2023-05-07T10:16:56;25.00;27.40
72604;DHT22;60645;56.968;24.196;2023-05-07T10:19:23;24.60;27.40
72604;DHT22;60645;56.968;24.196;2023-05-07T10:21:56;25.50;27.20
72604;DHT22;60645;56.968;24.196;2023-05-07T10:24:35;26.30;26.90
72604;DHT22;60645;56.968;24.196;2023-05-07T10:27:11;26.50;26.50
72604;DHT22;60645;56.968;24.196;2023-05-07T10:35:16;26.30;26.50
72604;DHT22;60645;56.968;24.196;2023-05-07T10:37:45;25.90;26.60
72604;DHT22;60645;56.968;24.196;2023-05-07T10:40:13;26.00;26.60
72604;DHT22;60645;56.968;24.196;2023-05-07T10:43:03;26.60;26.40
72604;DHT22;60645;56.968;24.196;2023-05-07T10:45:36;26.70;26.30
72604;DHT22;60645;56.968;24.196;2023-05-07T10:48:08;26.90;26.30
72604;DHT22;60645;56.968;24.196;2023-05-07T10:51:19;27.00;26.30
72604;DHT22;60645;56.968;24.196;2023-05-07T10:56:38;27.40;26.30
72604;DHT22;60645;56.968;24.196;2023-05-07T11:02:00;26.40;26.50
72604;DHT22;60645;56.968;24.196;2023-05-07T11:04:30;26.70;26.20
72604;DHT22;60645;56.968;24.196;2023-05-07T11:09:54;26.90;26.30
72604;DHT22;60645;56.968;24.196;2023-05-07T11:15:08;26.60;26.20
72604;DHT22;60645;56.968;24.196;2023-05-07T11:17:55;26.90;26.10
72604;DHT22;60645;56.968;24.196;2023-05-07T11:20:49;26.90;26.10
72604;DHT22;60645;56.968;24.196;2023-05-07T11:26:08;27.10;25.90
72604;DHT22;60645;56.968;24.196;2023-05-07T11:28:42;27.50;25.80
72604;DHT22;60645;56.968;24.196;2023-05-07T11:31:10;28.00;25.70
72604;DHT22;60645;56.968;24.196;2023-05-07T11:33:38;27.90;25.60
72604;DHT22;60645;56.968;24.196;2023-05-07T11:36:05;27.70;25.60
72604;DHT22;60645;56.968;24.196;2023-05-07T11:38:35;27.90;25.40
72604;DHT22;60645;56.968;24.196;2023-05-07T11:41:03;27.70;25.70
72604;DHT22;60645;56.968;24.196;2023-05-07T11:43:32;27.40;25.50
72604;DHT22;60645;56.968;24.196;2023-05-07T11:46:06;27.50;25.70
72604;DHT22;60645;56.968;24.196;2023-05-07T11:48:34;28.00;25.40
72604;DHT22;60645;56.968;24.196;2023-05-07T11:51:02;27.70;25.30
72604;DHT22;60645;56.968;24.196;2023-05-07T11:53:40;27.00;25.60
72604;DHT22;60645;56.968;24.196;2023-05-07T11:58:35;27.20;25.60
72604;DHT22;60645;56.968;24.196;2023-05-07T12:01:02;27.70;25.60
72604;DHT22;60645;56.968;24.196;2023-05-07T12:03:29;27.10;25.30
72604;DHT22;60645;56.968;24.196;2023-05-07T12:06:01;26.60;25.80
72604;DHT22;60645;56.968;24.196;2023-05-07T12:08:28;26.60;25.70
72604;DHT22;60645;56.968;24.196;2023-05-07T12:10:55;25.90;26.10
72604;DHT22;60645;56.968;24.196;2023-05-07T12:13:22;26.20;26.10
72604;DHT22;60645;56.968;24.196;2023-05-07T12:15:52;26.40;26.10
72604;DHT22;60645;56.968;24.196;2023-05-07T12:18:19;26.40;26.20
72604;DHT22;60645;56.968;24.196;2023-05-07T12:20:47;26.60;26.00
72604;DHT22;60645;56.968;24.196;2023-05-07T12:23:14;25.60;26.30
72604;DHT22;60645;56.968;24.196;2023-05-07T12:25:42;25.70;26.20
72604;DHT22;60645;56.968;24.196;2023-05-07T12:28:15;25.90;26.10
72604;DHT22;60645;56.968;24.196;2023-05-07T12:30:43;25.40;26.30
72604;DHT22;60645;56.968;24.196;2023-05-07T12:33:10;26.00;26.10
72604;DHT22;60645;56.968;24.196;2023-05-07T12:35:38;26.10;25.80
72604;DHT22;60645;56.968;24.196;2023-05-07T12:38:11;25.50;25.90
72604;DHT22;60645;56.968;24.196;2023-05-07T12:40:39;25.50;25.90
72604;DHT22;60645;56.968;24.196;2023-05-07T12:43:06;25.00;26.40
72604;DHT22;60645;56.968;24.196;2023-05-07T12:45:36;24.80;26.70
72604;DHT22;60645;56.968;24.196;2023-05-07T12:48:04;24.90;26.50
72604;DHT22;60645;56.968;24.196;2023-05-07T12:50:31;25.00;26.60
72604;DHT22;60645;56.968;24.196;2023-05-07T12:52:59;25.40;26.40
72604;DHT22;60645;56.968;24.196;2023-05-07T12:55:27;25.10;26.40
72604;DHT22;60645;56.968;24.196;2023-05-07T12:58:00;25.60;26.20
72604;DHT22;60645;56.968;24.196;2023-05-07T13:00:37;25.20;26.30
72604;DHT22;60645;56.968;24.196;2023-05-07T13:03:04;24.30;26.70
72604;DHT22;60645;56.968;24.196;2023-05-07T13:05:31;23.60;27.20
72604;DHT22;60645;56.968;24.196;2023-05-07T13:08:00;19.20;29.60
72604;DHT22;60645;56.968;24.196;2023-05-07T13:10:27;19.10;29.70
72604;DHT22;60645;56.968;24.196;2023-05-07T13:12:55;16.80;31.90
72604;DHT22;60645;56.968;24.196;2023-05-07T13:15:21;15.40;33.60
72604;DHT22;60645;56.968;24.196;2023-05-07T13:17:48;14.70;34.30
72604;DHT22;60645;56.968;24.196;2023-05-07T13:20:15;14.20;34.80
72604;DHT22;60645;56.968;24.196;2023-05-07T13:22:42;13.70;35.10
72604;DHT22;60645;56.968;24.196;2023-05-07T13:25:09;13.40;35.10
72604;DHT22;60645;56.968;24.196;2023-05-07T13:27:36;13.30;35.50
72604;DHT22;60645;56.968;24.196;2023-05-07T13:30:04;13.00;35.50
72604;DHT22;60645;56.968;24.196;2023-05-07T13:32:31;13.00;35.70
72604;DHT22;60645;56.968;24.196;2023-05-07T13:34:58;12.90;36.10
72604;DHT22;60645;56.968;24.196;2023-05-07T13:37:24;12.80;36.30
72604;DHT22;60645;56.968;24.196;2023-05-07T13:39:51;12.80;36.70
72604;DHT22;60645;56.968;24.196;2023-05-07T13:42:18;12.90;36.20
72604;DHT22;60645;56.968;24.196;2023-05-07T13:44:45;13.20;36.40
72604;DHT22;60645;56.968;24.196;2023-05-07T13:47:12;13.10;36.30
72604;DHT22;60645;56.968;24.196;2023-05-07T13:49:39;12.90;36.20
72604;DHT22;60645;56.968;24.196;2023-05-07T13:52:06;12.50;37.20
72604;DHT22;60645;56.968;24.196;2023-05-07T13:54:33;12.50;37.60
72604;DHT22;60645;56.968;24.196;2023-05-07T13:56:59;12.50;37.50
72604;DHT22;60645;56.968;24.196;2023-05-07T13:59:26;12.50;37.40
72604;DHT22;60645;56.968;24.196;2023-05-07T14:01:53;12.60;37.10
72604;DHT22;60645;56.968;24.196;2023-05-07T14:04:21;12.40;36.90
72604;DHT22;60645;56.968;24.196;2023-05-07T14:06:48;12.40;37.40
72604;DHT22;60645;56.968;24.196;2023-05-07T14:09:15;12.50;37.90
72604;DHT22;60645;56.968;24.196;2023-05-07T14:11:41;12.40;38.30
72604;DHT22;60645;56.968;24.196;2023-05-07T14:14:08;12.30;37.70
72604;DHT22;60645;56.968;24.196;2023-05-07T14:16:37;12.30;38.30
72604;DHT22;60645;56.968;24.196;2023-05-07T14:19:04;12.40;38.20
72604;DHT22;60645;56.968;24.196;2023-05-07T14:21:31;12.20;38.10
72604;DHT22;60645;56.968;24.196;2023-05-07T14:23:58;12.20;37.90
72604;DHT22;60645;56.968;24.196;2023-05-07T14:26:26;12.30;38.10
72604;DHT22;60645;56.968;24.196;2023-05-07T14:28:53;12.30;38.10
72604;DHT22;60645;56.968;24.196;2023-05-07T14:31:21;12.30;38.00
72604;DHT22;60645;56.968;24.196;2023-05-07T14:33:48;12.30;38.30
72604;DHT22;60645;56.968;24.196;2023-05-07T14:36:16;12.20;38.60
72604;DHT22;60645;56.968;24.196;2023-05-07T14:38:43;12.20;39.40
72604;DHT22;60645;56.968;24.196;2023-05-07T14:41:10;12.20;39.60
72604;DHT22;60645;56.968;24.196;2023-05-07T14:43:36;12.20;39.20
72604;DHT22;60645;56.968;24.196;2023-05-07T14:46:03;12.10;38.80
72604;DHT22;60645;56.968;24.196;2023-05-07T14:48:30;11.80;39.10
72604;DHT22;60645;56.968;24.196;2023-05-07T14:50:57;11.80;39.40
72604;DHT22;60645;56.968;24.196;2023-05-07T14:53:23;11.60;39.20
72604;DHT22;60645;56.968;24.196;2023-05-07T14:55:50;11.60;38.90
72604;DHT22;60645;56.968;24.196;2023-05-07T14:58:17;11.40;38.90
72604;DHT22;60645;56.968;24.196;2023-05-07T15:00:44;11.40;39.20
72604;DHT22;60645;56.968;24.196;2023-05-07T15:03:11;11.50;39.40
72604;DHT22;60645;56.968;24.196;2023-05-07T15:05:38;11.60;39.10
72604;DHT22;60645;56.968;24.196;2023-05-07T15:08:05;11.60;39.40
72604;DHT22;60645;56.968;24.196;2023-05-07T15:10:34;11.90;39.30
72604;DHT22;60645;56.968;24.196;2023-05-07T15:13:07;11.80;39.30
72604;DHT22;60645;56.968;24.196;2023-05-07T15:15:34;11.60;39.30
72604;DHT22;60645;56.968;24.196;2023-05-07T15:18:01;11.40;39.40
72604;DHT22;60645;56.968;24.196;2023-05-07T15:20:28;11.30;39.80
72604;DHT22;60645;56.968;24.196;2023-05-07T15:22:54;11.20;39.90
72604;DHT22;60645;56.968;24.196;2023-05-07T15:25:22;11.30;40.50
72604;DHT22;60645;56.968;24.196;2023-05-07T15:27:49;11.20;40.50
72604;DHT22;60645;56.968;24.196;2023-05-07T15:30:16;11.20;40.60
72604;DHT22;60645;56.968;24.196;2023-05-07T15:32:43;11.30;41.00
72604;DHT22;60645;56.968;24.196;2023-05-07T15:35:10;11.10;41.40
72604;DHT22;60645;56.968;24.196;2023-05-07T15:37:37;10.90;41.80
72604;DHT22;60645;56.968;24.196;2023-05-07T15:40:04;11.00;42.20
72604;DHT22;60645;56.968;24.196;2023-05-07T15:42:33;11.00;42.30
72604;DHT22;60645;56.968;24.196;2023-05-07T15:45:00;11.20;42.70